createdAt,value
2018-12-15T00:00:11.190Z,88.74
2018-12-15T00:01:11.087Z,87.60
2018-12-15T00:02:10.974Z,88.36
2018-12-15T00:03:10.862Z,88.64
2018-12-15T00:04:10.750Z,88.07
2018-12-15T00:05:10.641Z,88.55
2018-12-15T00:06:10.532Z,87.98
2018-12-15T00:07:10.423Z,88.07
2018-12-15T00:08:10.315Z,87.70
2018-12-15T00:09:10.204Z,88.17
2018-12-15T00:10:10.095Z,88.07
2018-12-15T00:11:09.986Z,87.98
2018-12-15T00:12:09.875Z,87.41
2018-12-15T00:13:09.767Z,88.17
2018-12-15T00:14:09.669Z,88.36
2018-12-15T00:15:09.557Z,87.51
2018-12-15T00:16:09.444Z,88.83
2018-12-15T00:17:09.329Z,89.31
2018-12-15T00:18:09.220Z,89.02
2018-12-15T00:19:09.121Z,88.83
2018-12-15T00:20:09.015Z,88.07
2018-12-15T00:21:08.896Z,88.45
2018-12-15T00:22:08.786Z,88.36
2018-12-15T00:23:08.673Z,88.36
2018-12-15T00:24:08.567Z,88.64
2018-12-15T00:25:08.454Z,88.55
2018-12-15T00:26:08.345Z,88.64
2018-12-15T00:27:08.236Z,88.64
2018-12-15T00:28:08.126Z,88.83
2018-12-15T00:29:08.017Z,88.93
2018-12-15T00:30:07.908Z,88.74
2018-12-15T00:31:07.801Z,88.55
2018-12-15T00:32:07.692Z,88.26
2018-12-15T00:33:07.580Z,88.74
2018-12-15T00:34:07.479Z,89.40
2018-12-15T00:35:07.361Z,90.72
2018-12-15T00:36:07.251Z,92.52
2018-12-15T00:37:07.142Z,90.82
2018-12-15T00:38:07.033Z,90.44
2018-12-15T00:39:06.932Z,90.72
2018-12-15T00:40:06.823Z,91.77
2018-12-15T00:41:06.708Z,91.86
2018-12-15T00:42:06.597Z,92.52
2018-12-15T00:43:06.500Z,91.39
2018-12-15T00:44:06.385Z,91.48
2018-12-15T00:45:06.274Z,92.24
2018-12-15T00:46:06.165Z,92.71
2018-12-15T00:47:07.929Z,92.24
2018-12-15T00:48:05.951Z,92.80
2018-12-15T00:49:05.838Z,91.77
2018-12-15T00:50:05.722Z,92.05
2018-12-15T00:51:05.613Z,93.47
2018-12-15T00:52:05.503Z,92.80
2018-12-15T00:53:05.395Z,93.28
2018-12-15T00:54:05.291Z,93.94
2018-12-15T00:55:05.180Z,93.94
2018-12-15T00:56:05.066Z,93.66
2018-12-15T00:57:04.956Z,93.66
2018-12-15T00:58:04.857Z,93.85
2018-12-15T00:59:04.744Z,93.47
2018-12-15T01:00:04.633Z,93.18
2018-12-15T01:01:04.520Z,93.66
2018-12-15T01:02:04.410Z,92.99
2018-12-15T01:03:04.300Z,94.32
2018-12-15T01:04:04.197Z,94.79
2018-12-15T01:05:04.087Z,93.47
2018-12-15T01:06:03.973Z,94.32
2018-12-15T01:07:03.865Z,94.23
2018-12-15T01:08:03.765Z,95.07
2018-12-15T01:09:03.653Z,95.26
2018-12-15T01:10:03.536Z,94.23
2018-12-15T01:11:03.426Z,94.04
2018-12-15T01:12:03.316Z,94.32
2018-12-15T01:13:03.217Z,93.94
2018-12-15T01:14:03.097Z,94.79
2018-12-15T01:15:02.988Z,94.32
2018-12-15T01:16:02.878Z,94.23
2018-12-15T01:17:02.770Z,94.60
2018-12-15T01:18:02.668Z,95.55
2018-12-15T01:19:02.556Z,95.36
2018-12-15T01:20:02.442Z,94.98
2018-12-15T01:21:02.332Z,94.79
2018-12-15T01:22:02.233Z,94.89
2018-12-15T01:23:02.113Z,94.04
2018-12-15T01:24:02.009Z,94.89
2018-12-15T01:25:01.903Z,95.55
2018-12-15T01:26:01.785Z,95.36
2018-12-15T01:27:01.686Z,95.07
2018-12-15T01:28:01.577Z,95.17
2018-12-15T01:29:01.464Z,95.07
2018-12-15T01:30:01.352Z,94.98
2018-12-15T01:31:01.238Z,94.98
2018-12-15T01:32:01.139Z,94.98
2018-12-15T01:33:01.028Z,95.26
2018-12-15T01:34:00.910Z,94.98
2018-12-15T01:35:00.800Z,94.98
2018-12-15T01:36:00.691Z,95.17
2018-12-15T01:37:00.593Z,95.07
2018-12-15T01:38:00.484Z,94.98
2018-12-15T01:39:00.367Z,94.60
2018-12-15T01:40:00.257Z,95.17
2018-12-15T01:41:00.143Z,94.04
2018-12-15T01:42:00.044Z,94.79
2018-12-15T01:42:59.924Z,94.60
2018-12-15T01:43:59.820Z,94.23
2018-12-15T01:44:59.709Z,94.42
2018-12-15T01:45:59.597Z,94.60
2018-12-15T01:46:59.487Z,95.36
2018-12-15T01:47:59.376Z,94.89
2018-12-15T01:48:59.271Z,94.89
2018-12-15T01:49:59.162Z,94.51
2018-12-15T01:50:59.048Z,95.07
2018-12-15T01:51:58.939Z,95.07
2018-12-15T01:52:58.840Z,94.79
2018-12-15T01:53:58.720Z,94.60
2018-12-15T01:54:58.611Z,94.60
2018-12-15T01:55:58.502Z,94.32
2018-12-15T01:56:58.391Z,94.51
2018-12-15T01:57:58.293Z,94.70
2018-12-15T01:58:58.189Z,94.60
2018-12-15T01:59:58.068Z,94.13
2018-12-15T02:00:57.954Z,93.85
2018-12-15T02:01:57.845Z,93.75
2018-12-15T02:02:57.746Z,94.04
2018-12-15T02:03:57.633Z,94.89
2018-12-15T02:04:57.521Z,94.98
2018-12-15T02:05:57.409Z,95.26
2018-12-15T02:06:57.296Z,94.79
2018-12-15T02:07:57.186Z,94.32
2018-12-15T02:08:57.077Z,94.70
2018-12-15T02:09:56.968Z,94.04
2018-12-15T02:10:56.875Z,94.04
2018-12-15T02:11:56.751Z,94.23
2018-12-15T02:12:56.638Z,94.32
2018-12-15T02:13:56.547Z,94.60
2018-12-15T02:14:56.429Z,94.32
2018-12-15T02:15:56.311Z,95.26
2018-12-15T02:16:56.202Z,94.42
2018-12-15T02:17:56.091Z,94.32
2018-12-15T02:18:55.990Z,94.60
2018-12-15T02:19:55.880Z,94.23
2018-12-15T02:20:55.767Z,94.32
2018-12-15T02:21:55.656Z,94.42
2018-12-15T02:22:55.544Z,94.42
2018-12-15T02:23:55.443Z,94.32
2018-12-15T02:24:55.332Z,93.75
2018-12-15T02:25:55.227Z,94.04
2018-12-15T02:26:55.108Z,94.13
2018-12-15T02:27:54.997Z,94.32
2018-12-15T02:28:54.896Z,94.04
2018-12-15T02:29:54.785Z,93.75
2018-12-15T02:30:54.674Z,93.75
2018-12-15T02:31:54.562Z,93.66
2018-12-15T02:32:54.448Z,93.47
2018-12-15T02:33:54.349Z,93.66
2018-12-15T02:34:54.239Z,93.75
2018-12-15T02:35:54.126Z,93.85
2018-12-15T02:36:54.010Z,93.85
2018-12-15T02:37:53.902Z,94.04
2018-12-15T02:38:53.802Z,93.85
2018-12-15T02:39:53.700Z,93.75
2018-12-15T02:40:53.578Z,94.32
2018-12-15T02:41:53.468Z,94.13
2018-12-15T02:42:53.356Z,94.04
2018-12-15T02:43:53.246Z,93.66
2018-12-15T02:44:53.144Z,95.45
2018-12-15T02:45:53.026Z,95.36
2018-12-15T02:46:52.919Z,94.60
2018-12-15T02:47:52.821Z,93.85
2018-12-15T02:48:52.698Z,93.66
2018-12-15T02:49:52.588Z,93.47
2018-12-15T02:50:52.484Z,93.85
2018-12-15T02:51:52.375Z,93.56
2018-12-15T02:52:52.261Z,95.17
2018-12-15T02:53:52.171Z,94.70
2018-12-15T02:54:52.050Z,93.75
2018-12-15T02:55:51.938Z,95.07
2018-12-15T02:56:51.827Z,94.04
2018-12-15T02:57:51.713Z,95.36
2018-12-15T02:58:51.614Z,95.36
2018-12-15T02:59:51.502Z,95.45
2018-12-15T03:00:51.385Z,95.26
2018-12-15T03:01:51.278Z,95.17
2018-12-15T03:02:51.169Z,94.89
2018-12-15T03:03:51.066Z,95.07
2018-12-15T03:04:50.955Z,94.23
2018-12-15T03:05:50.842Z,95.07
2018-12-15T03:06:50.731Z,95.26
2018-12-15T03:07:50.619Z,95.55
2018-12-15T03:08:50.519Z,95.26
2018-12-15T03:09:50.408Z,94.70
2018-12-15T03:10:50.295Z,94.60
2018-12-15T03:11:50.186Z,94.51
2018-12-15T03:12:50.074Z,95.36
2018-12-15T03:13:49.972Z,94.70
2018-12-15T03:14:49.860Z,94.51
2018-12-15T03:15:49.748Z,94.51
2018-12-15T03:16:49.637Z,95.36
2018-12-15T03:17:49.550Z,94.60
2018-12-15T03:18:49.438Z,96.50
2018-12-15T03:19:49.315Z,96.02
2018-12-15T03:20:49.202Z,95.93
2018-12-15T03:21:49.089Z,94.89
2018-12-15T03:22:48.990Z,96.12
2018-12-15T03:23:48.870Z,94.79
2018-12-15T03:24:48.765Z,94.60
2018-12-15T03:25:48.651Z,94.60
2018-12-15T03:26:48.615Z,94.42
2018-12-15T03:27:48.443Z,94.23
2018-12-15T03:28:48.330Z,95.07
2018-12-15T03:29:48.221Z,94.32
2018-12-15T03:30:48.107Z,94.42
2018-12-15T03:31:47.995Z,94.51
2018-12-15T03:32:47.897Z,93.85
2018-12-15T03:33:47.783Z,93.66
2018-12-15T03:34:47.673Z,93.75
2018-12-15T03:35:47.561Z,94.42
2018-12-15T03:36:47.449Z,93.66
2018-12-15T03:37:47.363Z,94.04
2018-12-15T03:38:47.232Z,93.75
2018-12-15T03:39:47.122Z,93.28
2018-12-15T03:40:47.026Z,93.75
2018-12-15T03:41:46.925Z,93.56
2018-12-15T03:42:46.801Z,93.94
2018-12-15T03:43:46.692Z,93.85
2018-12-15T03:44:46.575Z,93.66
2018-12-15T03:45:46.466Z,93.75
2018-12-15T03:46:46.367Z,92.99
2018-12-15T03:47:46.258Z,93.18
2018-12-15T03:48:46.137Z,93.28
2018-12-15T03:49:46.027Z,93.28
2018-12-15T03:50:45.918Z,93.37
2018-12-15T03:51:45.819Z,93.18
2018-12-15T03:52:45.711Z,93.75
2018-12-15T03:53:45.595Z,93.18
2018-12-15T03:54:45.485Z,93.18
2018-12-15T03:55:45.372Z,93.75
2018-12-15T03:56:45.273Z,92.99
2018-12-15T03:57:45.160Z,93.09
2018-12-15T03:58:45.050Z,93.09
2018-12-15T03:59:44.937Z,93.09
2018-12-15T04:00:44.825Z,93.28
2018-12-15T04:01:44.716Z,92.99
2018-12-15T04:02:44.607Z,93.47
2018-12-15T04:03:44.497Z,93.75
2018-12-15T04:04:44.389Z,93.37
2018-12-15T04:05:44.280Z,92.80
2018-12-15T04:06:44.171Z,93.56
2018-12-15T04:07:44.066Z,93.56
2018-12-15T04:08:43.953Z,92.80
2018-12-15T04:09:43.843Z,93.47
2018-12-15T04:10:43.750Z,93.09
2018-12-15T04:11:43.623Z,93.28
2018-12-15T04:12:43.513Z,93.47
2018-12-15T04:13:43.404Z,92.61
2018-12-15T04:14:43.300Z,93.56
2018-12-15T04:15:43.190Z,93.28
2018-12-15T04:16:43.077Z,93.28
2018-12-15T04:17:42.972Z,93.37
2018-12-15T04:18:42.861Z,93.37
2018-12-15T04:19:42.753Z,93.47
2018-12-15T04:20:42.646Z,93.09
2018-12-15T04:21:42.531Z,93.28
2018-12-15T04:22:42.422Z,92.71
2018-12-15T04:23:42.312Z,93.37
2018-12-15T04:24:42.212Z,93.09
2018-12-15T04:25:42.102Z,93.37
2018-12-15T04:26:41.986Z,93.75
2018-12-15T04:27:41.885Z,93.47
2018-12-15T04:28:41.767Z,93.75
2018-12-15T04:29:41.665Z,93.18
2018-12-15T04:30:41.556Z,93.28
2018-12-15T04:31:41.442Z,93.09
2018-12-15T04:32:45.095Z,92.99
2018-12-15T04:33:41.230Z,93.66
2018-12-15T04:34:41.118Z,93.28
2018-12-15T04:35:41.008Z,92.90
2018-12-15T04:36:40.895Z,93.66
2018-12-15T04:37:40.783Z,93.18
2018-12-15T04:38:40.688Z,93.85
2018-12-15T04:39:40.563Z,93.09
2018-12-15T04:40:40.462Z,93.66
2018-12-15T04:41:40.347Z,92.99
2018-12-15T04:42:40.237Z,93.37
2018-12-15T04:43:40.127Z,93.09
2018-12-15T04:44:40.018Z,93.37
2018-12-15T04:45:39.909Z,93.66
2018-12-15T04:46:39.799Z,93.18
2018-12-15T04:47:39.690Z,93.37
2018-12-15T04:48:39.581Z,93.66
2018-12-15T04:49:39.472Z,92.90
2018-12-15T04:50:39.363Z,92.99
2018-12-15T04:51:39.254Z,93.09
2018-12-15T04:52:39.155Z,92.80
2018-12-15T04:53:39.042Z,92.99
2018-12-15T04:54:38.943Z,93.75
2018-12-15T04:55:38.819Z,93.18
2018-12-15T04:56:38.710Z,93.28
2018-12-15T04:57:38.607Z,93.28
2018-12-15T04:58:38.490Z,93.75
2018-12-15T04:59:38.382Z,93.94
2018-12-15T05:00:38.272Z,93.85
2018-12-15T05:01:38.173Z,93.66
2018-12-15T05:02:43.779Z,93.56
2018-12-15T05:03:37.948Z,93.56
2018-12-15T05:04:37.836Z,92.99
2018-12-15T05:05:37.727Z,92.99
2018-12-15T05:06:37.619Z,92.99
2018-12-15T05:07:37.511Z,93.28
2018-12-15T05:08:37.400Z,93.09
2018-12-15T05:09:37.309Z,93.47
2018-12-15T05:10:37.188Z,93.09
2018-12-15T05:11:37.073Z,92.80
2018-12-15T05:12:36.964Z,93.28
2018-12-15T05:13:36.878Z,93.09
2018-12-15T05:14:36.754Z,93.66
2018-12-15T05:15:36.642Z,93.47
2018-12-15T05:16:36.533Z,92.99
2018-12-15T05:17:36.418Z,92.80
2018-12-15T05:18:36.318Z,93.66
2018-12-15T05:19:36.201Z,93.28
2018-12-15T05:20:36.091Z,93.47
2018-12-15T05:21:35.983Z,93.18
2018-12-15T05:22:35.874Z,93.18
2018-12-15T05:23:35.799Z,93.66
2018-12-15T05:24:35.661Z,93.09
2018-12-15T05:25:35.548Z,93.09
2018-12-15T05:26:35.448Z,93.18
2018-12-15T05:27:35.336Z,93.37
2018-12-15T05:28:35.224Z,93.47
2018-12-15T05:29:35.113Z,93.56
2018-12-15T05:30:35.001Z,93.56
2018-12-15T05:31:34.902Z,92.99
2018-12-15T05:32:34.789Z,93.18
2018-12-15T05:33:34.676Z,93.56
2018-12-15T05:34:34.567Z,93.56
2018-12-15T05:35:34.466Z,93.47
2018-12-15T05:36:34.361Z,93.09
2018-12-15T05:37:34.242Z,92.90
2018-12-15T05:38:34.130Z,93.56
2018-12-15T05:39:34.029Z,93.37
2018-12-15T05:40:33.919Z,92.99
2018-12-15T05:41:33.806Z,93.37
2018-12-15T05:42:33.695Z,93.28
2018-12-15T05:43:33.585Z,93.28
2018-12-15T05:44:33.483Z,93.18
2018-12-15T05:45:33.373Z,93.47
2018-12-15T05:46:33.267Z,93.56
2018-12-15T05:47:33.147Z,93.56
2018-12-15T05:48:33.037Z,93.66
2018-12-15T05:49:32.936Z,92.80
2018-12-15T05:50:32.821Z,93.56
2018-12-15T05:51:32.717Z,93.37
2018-12-15T05:52:32.603Z,93.28
2018-12-15T05:53:32.492Z,92.80
2018-12-15T05:54:32.389Z,93.18
2018-12-15T05:55:32.278Z,93.47
2018-12-15T05:56:32.165Z,93.56
2018-12-15T05:57:32.055Z,93.94
2018-12-15T05:58:31.949Z,92.99
2018-12-15T05:59:31.837Z,93.37
2018-12-15T06:00:31.732Z,93.66
2018-12-15T06:01:31.619Z,93.66
2018-12-15T06:02:31.518Z,93.47
2018-12-15T06:03:31.408Z,93.56
2018-12-15T06:04:31.291Z,93.37
2018-12-15T06:05:31.182Z,93.66
2018-12-15T06:06:31.084Z,92.90
2018-12-15T06:07:30.971Z,93.18
2018-12-15T06:08:30.860Z,93.37
2018-12-15T06:09:30.745Z,93.18
2018-12-15T06:10:30.637Z,93.37
2018-12-15T06:11:30.527Z,93.37
2018-12-15T06:12:30.424Z,92.90
2018-12-15T06:13:30.314Z,93.85
2018-12-15T06:14:30.202Z,93.37
2018-12-15T06:15:30.090Z,93.47
2018-12-15T06:16:29.990Z,93.94
2018-12-15T06:17:29.871Z,93.56
2018-12-15T06:18:31.818Z,93.66
2018-12-15T06:19:29.653Z,93.85
2018-12-15T06:20:29.544Z,93.94
2018-12-15T06:21:29.437Z,93.18
2018-12-15T06:22:29.326Z,93.47
2018-12-15T06:23:29.219Z,93.56
2018-12-15T06:24:29.107Z,93.66
2018-12-15T06:25:28.998Z,93.28
2018-12-15T06:26:28.895Z,93.75
2018-12-15T06:27:28.783Z,93.75
2018-12-15T06:28:28.672Z,93.56
2018-12-15T06:29:28.571Z,93.37
2018-12-15T06:30:28.459Z,93.47
2018-12-15T06:31:28.350Z,93.85
2018-12-15T06:32:28.235Z,93.66
2018-12-15T06:33:28.124Z,92.90
2018-12-15T06:34:28.024Z,93.18
2018-12-15T06:35:27.912Z,92.90
2018-12-15T06:36:27.797Z,93.75
2018-12-15T06:37:27.690Z,93.18
2018-12-15T06:38:27.589Z,93.56
2018-12-15T06:39:27.478Z,93.66
2018-12-15T06:40:27.359Z,93.28
2018-12-15T06:41:27.254Z,94.13
2018-12-15T06:42:27.141Z,93.47
2018-12-15T06:43:27.044Z,92.99
2018-12-15T06:44:26.926Z,93.47
2018-12-15T06:45:26.815Z,93.09
2018-12-15T06:46:26.705Z,93.18
2018-12-15T06:47:26.595Z,93.66
2018-12-15T06:48:26.562Z,93.28
2018-12-15T06:49:26.378Z,94.04
2018-12-15T06:50:26.270Z,93.18
2018-12-15T06:51:26.160Z,93.37
2018-12-15T06:52:26.064Z,92.80
2018-12-15T06:53:25.947Z,93.47
2018-12-15T06:54:25.836Z,93.09
2018-12-15T06:55:25.723Z,93.47
2018-12-15T06:56:25.615Z,93.66
2018-12-15T06:57:25.507Z,93.66
2018-12-15T06:58:25.403Z,93.56
2018-12-15T06:59:25.292Z,93.85
2018-12-15T07:00:25.189Z,94.13
2018-12-15T07:01:25.070Z,93.47
2018-12-15T07:02:24.961Z,93.09
2018-12-15T07:03:24.853Z,93.56
2018-12-15T07:04:24.756Z,94.13
2018-12-15T07:05:24.642Z,94.13
2018-12-15T07:06:24.529Z,93.47
2018-12-15T07:07:24.415Z,94.32
2018-12-15T07:08:24.311Z,93.75
2018-12-15T07:09:24.198Z,93.28
2018-12-15T07:10:24.094Z,93.28
2018-12-15T07:11:23.982Z,93.37
2018-12-15T07:12:23.888Z,93.66
2018-12-15T07:13:23.772Z,93.37
2018-12-15T07:14:23.659Z,93.28
2018-12-15T07:15:23.548Z,93.37
2018-12-15T07:16:23.436Z,93.09
2018-12-15T07:17:23.335Z,93.66
2018-12-15T07:18:23.228Z,93.47
2018-12-15T07:19:23.112Z,93.09
2018-12-15T07:20:23.004Z,93.28
2018-12-15T07:21:22.889Z,92.99
2018-12-15T07:22:22.788Z,93.28
2018-12-15T07:23:22.677Z,92.71
2018-12-15T07:24:22.564Z,93.18
2018-12-15T07:25:22.453Z,93.09
2018-12-15T07:26:22.349Z,92.71
2018-12-15T07:27:22.242Z,93.47
2018-12-15T07:28:22.130Z,92.80
2018-12-15T07:29:22.017Z,93.28
2018-12-15T07:30:21.918Z,93.18
2018-12-15T07:31:21.807Z,92.80
2018-12-15T07:32:21.695Z,92.80
2018-12-15T07:33:21.583Z,92.52
2018-12-15T07:34:21.472Z,92.80
2018-12-15T07:35:21.376Z,92.52
2018-12-15T07:36:21.260Z,92.61
2018-12-15T07:37:21.146Z,93.18
2018-12-15T07:38:21.038Z,93.09
2018-12-15T07:39:20.924Z,92.80
2018-12-15T07:40:20.823Z,92.99
2018-12-15T07:41:20.712Z,92.80
2018-12-15T07:42:20.601Z,92.99
2018-12-15T07:43:20.492Z,92.99
2018-12-15T07:44:20.393Z,93.37
2018-12-15T07:45:20.276Z,93.18
2018-12-15T07:46:20.167Z,92.61
2018-12-15T07:47:20.052Z,93.28
2018-12-15T07:48:19.943Z,93.28
2018-12-15T07:49:19.842Z,93.18
2018-12-15T07:50:19.729Z,93.09
2018-12-15T07:51:19.617Z,93.18
2018-12-15T07:52:19.505Z,92.71
2018-12-15T07:53:19.405Z,92.90
2018-12-15T07:54:19.296Z,93.28
2018-12-15T07:55:19.182Z,92.61
2018-12-15T07:56:19.069Z,93.09
2018-12-15T07:57:18.959Z,92.61
2018-12-15T07:58:18.853Z,93.18
2018-12-15T07:59:18.741Z,92.52
2018-12-15T08:00:18.734Z,93.09
2018-12-15T08:01:18.524Z,92.71
2018-12-15T08:02:18.426Z,93.09
2018-12-15T08:03:18.304Z,93.37
2018-12-15T08:04:18.195Z,92.61
2018-12-15T08:05:18.091Z,93.18
2018-12-15T08:06:17.988Z,92.71
2018-12-15T08:07:17.868Z,92.80
2018-12-15T08:08:17.759Z,93.37
2018-12-15T08:09:17.652Z,93.18
2018-12-15T08:10:17.541Z,92.71
2018-12-15T08:11:17.444Z,93.28
2018-12-15T08:12:17.330Z,92.61
2018-12-15T08:13:17.217Z,92.80
2018-12-15T08:14:17.105Z,92.99
2018-12-15T08:15:17.006Z,92.61
2018-12-15T08:16:16.893Z,92.71
2018-12-15T08:17:16.786Z,92.43
2018-12-15T08:18:16.670Z,92.61
2018-12-15T08:19:16.585Z,92.99
2018-12-15T08:20:16.452Z,93.09
2018-12-15T08:21:16.347Z,92.99
2018-12-15T08:22:16.235Z,92.80
2018-12-15T08:23:16.124Z,92.90
2018-12-15T08:24:16.023Z,93.09
2018-12-15T08:25:15.912Z,92.71
2018-12-15T08:26:15.799Z,92.24
2018-12-15T08:27:15.688Z,92.61
2018-12-15T08:28:15.590Z,92.14
2018-12-15T08:29:15.486Z,92.05
2018-12-15T08:30:15.370Z,91.96
2018-12-15T08:31:15.253Z,91.58
2018-12-15T08:32:15.153Z,91.48
2018-12-15T08:33:15.037Z,91.58
2018-12-15T08:34:14.930Z,92.52
2018-12-15T08:35:14.816Z,92.24
2018-12-15T08:36:14.709Z,92.14
2018-12-15T08:37:14.605Z,91.96
2018-12-15T08:38:14.496Z,92.05
2018-12-15T08:39:14.381Z,91.77
2018-12-15T08:40:14.362Z,91.67
2018-12-15T08:41:14.173Z,91.58
2018-12-15T08:42:14.055Z,91.67
2018-12-15T08:43:13.945Z,92.61
2018-12-15T08:44:13.837Z,91.86
2018-12-15T08:45:13.798Z,91.96
2018-12-15T08:46:13.623Z,92.05
2018-12-15T08:47:13.511Z,92.14
2018-12-15T08:48:13.400Z,92.14
2018-12-15T08:49:13.300Z,92.14
2018-12-15T08:50:13.189Z,92.05
2018-12-15T08:51:13.076Z,92.05
2018-12-15T08:52:12.964Z,92.05
2018-12-15T08:53:12.865Z,92.14
2018-12-15T08:54:12.746Z,92.14
2018-12-15T08:55:12.637Z,93.09
2018-12-15T08:56:12.528Z,92.43
2018-12-15T08:57:12.429Z,92.05
2018-12-15T08:58:12.317Z,91.58
2018-12-15T08:59:12.205Z,91.58
2018-12-15T09:00:12.098Z,92.24
2018-12-15T09:01:11.993Z,92.57
2018-12-15T09:02:11.883Z,93.42
2018-12-15T09:03:11.770Z,93.42
2018-12-15T09:04:11.659Z,92.85
2018-12-15T09:05:11.559Z,93.04
2018-12-15T09:06:11.449Z,93.23
2018-12-15T09:07:11.329Z,93.23
2018-12-15T09:08:11.220Z,93.23
2018-12-15T09:09:11.118Z,93.04
2018-12-15T09:10:11.003Z,93.51
2018-12-15T09:11:10.895Z,93.13
2018-12-15T09:12:10.790Z,93.61
2018-12-15T09:13:10.677Z,93.23
2018-12-15T09:14:10.577Z,93.13
2018-12-15T09:15:10.465Z,93.51
2018-12-15T09:16:10.350Z,93.70
2018-12-15T09:17:10.253Z,93.80
2018-12-15T09:18:10.142Z,93.32
2018-12-15T09:19:11.445Z,93.61
2018-12-15T09:20:09.916Z,93.23
2018-12-15T09:21:09.807Z,93.13
2018-12-15T09:22:11.491Z,93.04
2018-12-15T09:23:09.594Z,93.42
2018-12-15T09:24:09.482Z,93.04
2018-12-15T09:25:09.373Z,93.23
2018-12-15T09:26:09.265Z,93.04
2018-12-15T09:27:09.158Z,93.42
2018-12-15T09:28:09.047Z,93.04
2018-12-15T09:29:08.947Z,93.13
2018-12-15T09:30:08.838Z,93.23
2018-12-15T09:31:08.723Z,92.99
2018-12-15T09:32:08.626Z,93.18
2018-12-15T09:33:08.511Z,92.66
2018-12-15T09:34:08.402Z,92.66
2018-12-15T09:35:08.287Z,93.32
2018-12-15T09:36:08.188Z,93.04
2018-12-15T09:37:08.077Z,92.66
2018-12-15T09:38:07.962Z,92.66
2018-12-15T09:39:07.851Z,93.61
2018-12-15T09:40:08.005Z,93.42
2018-12-15T09:41:07.642Z,93.42
2018-12-15T09:42:07.532Z,93.23
2018-12-15T09:43:07.418Z,93.32
2018-12-15T09:44:07.520Z,92.85
2018-12-15T09:45:07.207Z,93.61
2018-12-15T09:46:07.095Z,93.23
2018-12-15T09:47:06.984Z,93.13
2018-12-15T09:48:06.883Z,93.51
2018-12-15T09:49:06.770Z,93.42
2018-12-15T09:50:06.664Z,93.32
2018-12-15T09:51:06.559Z,93.80
2018-12-15T09:52:06.447Z,93.32
2018-12-15T09:53:06.336Z,93.32
2018-12-15T09:54:06.236Z,93.13
2018-12-15T09:55:06.138Z,93.89
2018-12-15T09:56:06.007Z,93.23
2018-12-15T09:57:05.899Z,93.23
2018-12-15T09:58:05.792Z,93.80
2018-12-15T09:59:05.685Z,93.89
2018-12-15T10:00:05.576Z,93.04
2018-12-15T10:01:05.466Z,93.42
2018-12-15T10:02:05.365Z,93.32
2018-12-15T10:03:05.252Z,93.32
2018-12-15T10:04:05.142Z,93.32
2018-12-15T10:05:05.044Z,93.42
2018-12-15T10:06:04.929Z,93.32
2018-12-15T10:07:04.820Z,93.51
2018-12-15T10:08:04.708Z,93.32
2018-12-15T10:09:04.606Z,93.32
2018-12-15T10:10:04.494Z,93.80
2018-12-15T10:11:04.384Z,93.32
2018-12-15T10:12:04.286Z,93.32
2018-12-15T10:13:04.172Z,93.04
2018-12-15T10:14:04.061Z,93.51
2018-12-15T10:15:03.951Z,92.76
2018-12-15T10:16:03.844Z,93.32
2018-12-15T10:17:03.735Z,92.94
2018-12-15T10:18:03.629Z,93.32
2018-12-15T10:19:03.517Z,93.32
2018-12-15T10:20:03.409Z,93.61
2018-12-15T10:21:03.302Z,93.51
2018-12-15T10:22:03.193Z,93.04
2018-12-15T10:23:03.085Z,92.94
2018-12-15T10:24:02.976Z,93.23
2018-12-15T10:25:02.869Z,93.13
2018-12-15T10:26:02.760Z,93.23
2018-12-15T10:27:02.652Z,93.23
2018-12-15T10:28:02.544Z,93.32
2018-12-15T10:29:02.436Z,93.42
2018-12-15T10:30:02.330Z,93.42
2018-12-15T10:31:02.220Z,93.23
2018-12-15T10:32:02.119Z,93.04
2018-12-15T10:33:02.009Z,92.94
2018-12-15T10:34:01.895Z,93.13
2018-12-15T10:35:01.796Z,93.61
2018-12-15T10:36:01.687Z,92.66
2018-12-15T10:37:01.574Z,93.23
2018-12-15T10:38:01.478Z,92.57
2018-12-15T10:39:01.362Z,93.23
2018-12-15T10:40:01.248Z,93.13
2018-12-15T10:41:01.137Z,93.23
2018-12-15T10:42:01.037Z,92.57
2018-12-15T10:43:00.925Z,93.89
2018-12-15T10:44:00.814Z,93.23
2018-12-15T10:45:00.715Z,93.04
2018-12-15T10:46:00.603Z,93.42
2018-12-15T10:47:00.490Z,94.18
2018-12-15T10:48:00.379Z,92.94
2018-12-15T10:49:00.279Z,93.13
2018-12-15T10:50:00.167Z,93.32
2018-12-15T10:51:00.057Z,92.29
2018-12-15T10:51:59.955Z,92.76
2018-12-15T10:52:59.845Z,92.94
2018-12-15T10:53:59.732Z,93.23
2018-12-15T10:54:59.636Z,93.13
2018-12-15T10:55:59.521Z,92.19
2018-12-15T10:56:59.408Z,93.42
2018-12-15T10:57:59.298Z,92.76
2018-12-15T10:58:59.198Z,92.94
2018-12-15T10:59:59.084Z,92.85
2018-12-15T11:00:58.975Z,92.94
2018-12-15T11:01:58.874Z,93.04
2018-12-15T11:02:58.762Z,92.85
2018-12-15T11:04:00.884Z,93.04
2018-12-15T11:04:58.550Z,92.47
2018-12-15T11:05:58.438Z,92.57
2018-12-15T11:06:58.327Z,93.04
2018-12-15T11:07:58.215Z,93.18
2018-12-15T11:08:58.111Z,93.27
2018-12-15T11:09:58.000Z,92.80
2018-12-15T11:10:57.891Z,93.75
2018-12-15T11:11:57.792Z,93.27
2018-12-15T11:12:57.676Z,93.04
2018-12-15T11:13:57.568Z,93.08
2018-12-15T11:14:57.468Z,93.51
2018-12-15T11:15:57.357Z,93.61
2018-12-15T11:16:57.245Z,93.32
2018-12-15T11:17:57.135Z,93.32
2018-12-15T11:18:57.026Z,92.66
2018-12-15T11:19:56.918Z,92.85
2018-12-15T11:20:56.811Z,93.23
2018-12-15T11:21:56.702Z,93.13
2018-12-15T11:22:56.600Z,93.04
2018-12-15T11:23:56.487Z,92.76
2018-12-15T11:24:56.388Z,92.76
2018-12-15T11:25:56.275Z,92.94
2018-12-15T11:26:56.210Z,92.85
2018-12-15T11:27:56.066Z,92.94
2018-12-15T11:28:55.955Z,92.47
2018-12-15T11:29:55.842Z,92.19
2018-12-15T11:30:55.728Z,91.43
2018-12-15T11:31:55.628Z,92.10
2018-12-15T11:32:55.517Z,91.62
2018-12-15T11:33:55.413Z,92.38
2018-12-15T11:34:55.305Z,91.05
2018-12-15T11:35:55.196Z,91.62
2018-12-15T11:36:55.082Z,91.53
2018-12-15T11:37:54.982Z,91.81
2018-12-15T11:38:54.871Z,91.62
2018-12-15T11:39:55.247Z,91.72
2018-12-15T11:40:54.648Z,90.96
2018-12-15T11:41:54.549Z,91.62
2018-12-15T11:42:54.449Z,92.10
2018-12-15T11:43:54.325Z,92.57
2018-12-15T11:44:54.215Z,93.13
2018-12-15T11:45:54.113Z,93.51
2018-12-15T11:46:54.001Z,93.04
2018-12-15T11:47:53.887Z,92.57
2018-12-15T11:48:53.788Z,92.10
2018-12-15T11:49:53.677Z,93.04
2018-12-15T11:50:53.565Z,92.57
2018-12-15T11:51:53.465Z,92.66
2018-12-15T11:52:53.354Z,92.19
2018-12-15T11:53:53.238Z,93.23
2018-12-15T11:54:53.142Z,92.66
2018-12-15T11:55:53.031Z,93.89
2018-12-15T11:56:52.918Z,93.13
2018-12-15T11:57:52.808Z,93.70
2018-12-15T11:58:52.695Z,95.74
2018-12-15T11:59:52.594Z,94.04
2018-12-15T12:00:52.484Z,94.32
2018-12-15T12:01:53.135Z,94.13
2018-12-15T12:02:52.266Z,94.23
2018-12-15T12:03:52.161Z,93.94
2018-12-15T12:04:52.047Z,94.13
2018-12-15T12:05:51.939Z,94.23
2018-12-15T12:06:51.830Z,93.37
2018-12-15T12:07:51.726Z,93.37
2018-12-15T12:08:51.624Z,94.23
2018-12-15T12:09:51.514Z,93.56
2018-12-15T12:10:51.408Z,94.98
2018-12-15T12:11:51.295Z,94.60
2018-12-15T12:12:51.193Z,93.75
2018-12-15T12:13:51.074Z,94.70
2018-12-15T12:14:50.967Z,94.32
2018-12-15T12:15:50.866Z,95.26
2018-12-15T12:16:50.768Z,94.42
2018-12-15T12:17:50.642Z,94.32
2018-12-15T12:18:50.543Z,94.32
2018-12-15T12:19:50.516Z,94.32
2018-12-15T12:20:50.320Z,94.13
2018-12-15T12:21:50.212Z,94.42
2018-12-15T12:22:50.107Z,94.32
2018-12-15T12:23:49.992Z,94.51
2018-12-15T12:24:49.884Z,94.23
2018-12-15T12:25:49.776Z,94.42
2018-12-15T12:26:49.668Z,94.04
2018-12-15T12:27:49.561Z,93.56
2018-12-15T12:28:49.461Z,94.04
2018-12-15T12:29:49.353Z,94.42
2018-12-15T12:30:49.235Z,93.75
2018-12-15T12:31:49.127Z,95.64
2018-12-15T12:32:49.026Z,94.23
2018-12-15T12:33:48.914Z,94.13
2018-12-15T12:34:48.804Z,94.13
2018-12-15T12:35:48.696Z,94.23
2018-12-15T12:36:48.587Z,94.56
2018-12-15T12:37:48.479Z,94.51
2018-12-15T12:38:48.370Z,94.23
2018-12-15T12:39:48.271Z,94.27
2018-12-15T12:40:48.161Z,94.18
2018-12-15T12:41:48.056Z,94.04
2018-12-15T12:42:47.956Z,94.08
2018-12-15T12:43:47.832Z,94.23
2018-12-15T12:44:47.733Z,94.04
2018-12-15T12:45:47.621Z,93.46
2018-12-15T12:46:47.509Z,94.13
2018-12-15T12:47:47.398Z,94.89
2018-12-15T12:48:47.297Z,94.42
2018-12-15T12:49:47.188Z,94.27
2018-12-15T12:50:47.074Z,94.37